Time;durP1;ratioP1;P1;durP2;ratioP2;P2;SDS_P1;SDS_P2;PMS_P1;PMS_P2;Temp;Humidity;BMP_temperature;BMP_pressure;BME280_temperature;BME280_humidity;BME280_pressure;Samples;Min_cycle;Max_cycle;Signal;HPM_P1;HPM_P2
2022/01/01 00:00:42;;;;;;;73.40;41.13;;;10.00;99.90;;;;;;5051584;28;20029;-59
2022/01/01 00:03:07;;;;;;;78.80;45.85;;;10.00;99.90;;;;;;5050519;28;20040;-59
2022/01/01 00:05:33;;;;;;;75.05;41.40;;;10.20;99.90;;;;;;5051639;28;20116;-60
2022/01/01 00:08:01;;;;;;;81.72;43.55;;;10.10;99.90;;;;;;5051603;28;20401;-60
2022/01/01 00:10:26;;;;;;;82.55;44.15;;;10.10;99.90;;;;;;5049927;28;20043;-60
2022/01/01 00:12:52;;;;;;;70.30;41.88;;;10.10;99.90;;;;;;5051320;28;20139;-60
2022/01/01 00:15:19;;;;;;;69.07;36.40;;;10.10;99.90;;;;;;5033560;28;20094;-59
2022/01/01 00:17:45;;;;;;;64.55;32.80;;;10.10;99.90;;;;;;5051192;28;20091;-59
2022/01/01 00:20:12;;;;;;;58.53;33.72;;;10.10;99.90;;;;;;5051340;28;20040;-59
2022/01/01 00:22:39;;;;;;;64.22;34.20;;;10.10;99.90;;;;;;5050955;28;20044;-59
2022/01/01 00:25:06;;;;;;;63.42;31.65;;;10.10;99.90;;;;;;5060168;28;20436;-60
2022/01/01 00:27:32;;;;;;;60.72;29.95;;;10.10;99.90;;;;;;5069672;28;20040;-53
2022/01/01 00:29:58;;;;;;;62.17;29.15;;;10.20;99.90;;;;;;5069658;28;20040;-49
2022/01/01 00:32:23;;;;;;;58.47;27.65;;;10.10;99.90;;;;;;5070725;28;20044;-49
2022/01/01 00:34:50;;;;;;;63.83;28.60;;;10.20;99.90;;;;;;5066436;28;20036;-51
2022/01/01 00:37:16;;;;;;;68.53;31.98;;;10.20;99.90;;;;;;5070759;28;20052;-49
2022/01/01 00:39:43;;;;;;;63.70;34.05;;;10.20;99.90;;;;;;5070925;28;20044;-49
2022/01/01 00:42:09;;;;;;;67.75;32.78;;;10.20;99.90;;;;;;5071069;28;20047;-49
2022/01/01 00:44:35;;;;;;;75.63;35.63;;;10.20;99.90;;;;;;5070537;28;20504;-49
2022/01/01 00:47:01;;;;;;;60.65;32.78;;;10.10;99.90;;;;;;5070732;28;20143;-47
2022/01/01 00:49:28;;;;;;;70.90;35.38;;;10.10;99.90;;;;;;5069639;28;20458;-47
2022/01/01 00:51:54;;;;;;;58.33;27.40;;;10.10;99.90;;;;;;5051122;28;20157;-49
2022/01/01 00:54:19;;;;;;;58.30;27.10;;;10.10;99.90;;;;;;5054156;28;20132;-48
2022/01/01 00:56:45;;;;;;;64.43;26.48;;;10.10;99.90;;;;;;5072004;28;20443;-48
2022/01/01 00:59:11;;;;;;;53.15;25.33;;;10.10;99.90;;;;;;5072035;28;20040;-46
2022/01/01 01:01:38;;;;;;;57.20;24.25;;;10.00;99.90;;;;;;5070466;28;20047;-48
2022/01/01 01:04:04;;;;;;;66.30;26.48;;;10.00;99.90;;;;;;5070658;28;20401;-50
2022/01/01 01:06:30;;;;;;;58.13;26.17;;;10.00;99.90;;;;;;5071985;28;20059;-48
2022/01/01 01:08:59;;;;;;;60.03;27.65;;;10.00;99.90;;;;;;5070843;28;20032;-46
2022/01/01 01:11:25;;;;;;;49.47;23.88;;;9.90;99.90;;;;;;5071921;28;20040;-46
2022/01/01 01:13:59;;;;;;;51.50;20.77;;;9.90;99.90;;;;;;5070493;28;20129;-47
2022/01/01 01:16:27;;;;;;;58.67;22.83;;;9.80;99.90;;;;;;5072039;28;20102;-46
2022/01/01 01:18:54;;;;;;;49.55;22.80;;;9.90;99.90;;;;;;5071947;28;20048;-47
2022/01/01 01:21:24;;;;;;;71.95;34.65;;;9.90;99.90;;;;;;5071896;28;20465;-46
2022/01/01 01:23:49;;;;;;;59.35;28.73;;;9.80;99.90;;;;;;5071779;28;20047;-48
2022/01/01 01:26:16;;;;;;;73.53;31.45;;;9.80;99.90;;;;;;5072088;28;20032;-47
2022/01/01 01:28:48;;;;;;;60.47;28.30;;;9.80;99.90;;;;;;5071930;28;20396;-53
2022/01/01 01:31:14;;;;;;;55.45;27.77;;;9.80;99.90;;;;;;5071800;28;20033;-52
2022/01/01 01:33:40;;;;;;;59.70;27.58;;;9.70;99.90;;;;;;5071664;28;20070;-46
2022/01/01 01:36:05;;;;;;;57.22;24.92;;;9.80;99.90;;;;;;5071682;28;20587;-48
2022/01/01 01:38:36;;;;;;;59.22;25.80;;;9.80;99.90;;;;;;5071550;28;20041;-48
2022/01/01 01:41:03;;;;;;;61.92;23.92;;;9.80;99.90;;;;;;5070518;28;20047;-49
2022/01/01 01:43:30;;;;;;;58.35;24.55;;;9.70;99.90;;;;;;5070046;28;20048;-50
2022/01/01 01:46:02;;;;;;;57.92;24.05;;;9.70;99.90;;;;;;5071466;28;20554;-49
2022/01/01 01:48:28;;;;;;;51.20;25.17;;;9.70;99.90;;;;;;5070488;28;20041;-50
2022/01/01 01:50:56;;;;;;;58.63;26.70;;;9.60;99.90;;;;;;5057723;28;20106;-47
2022/01/01 01:53:22;;;;;;;57.50;25.92;;;9.60;99.90;;;;;;5051518;28;20041;-51
2022/01/01 01:55:49;;;;;;;59.30;25.27;;;9.70;99.90;;;;;;5067857;28;20044;-48
2022/01/01 01:58:14;;;;;;;68.70;25.77;;;9.70;99.90;;;;;;5070180;28;20049;-52
2022/01/01 02:03:24;;;;;;;62.28;25.45;;;9.60;99.90;;;;;;5071148;28;20153;-48
2022/01/01 02:05:52;;;;;;;59.30;24.63;;;9.60;99.90;;;;;;5071599;28;20490;-48
2022/01/01 02:08:19;;;;;;;56.67;24.17;;;9.60;99.90;;;;;;5071532;28;20428;-47
2022/01/01 02:10:48;;;;;;;54.83;23.35;;;9.60;99.90;;;;;;5071618;28;20033;-51
2022/01/01 02:13:23;;;;;;;56.67;24.35;;;9.70;99.90;;;;;;5071353;28;20560;-46
2022/01/01 02:18:19;;;;;;;63.78;27.27;;;9.60;99.90;;;;;;5071598;28;20044;-49
2022/01/01 02:20:49;;;;;;;67.65;25.92;;;9.60;99.90;;;;;;5070251;28;20043;-46
2022/01/01 02:23:22;;;;;;;69.97;29.60;;;9.70;99.90;;;;;;5071282;28;20043;-50
2022/01/01 02:25:51;;;;;;;;;;;9.80;99.90;;;;;;5072636;28;20037;-50
2022/01/01 02:28:18;;;;;;;68.68;30.83;;;9.70;99.90;;;;;;5074852;28;20406;-50
2022/01/01 02:30:44;;;;;;;71.72;31.98;;;9.70;99.90;;;;;;5074664;28;20047;-49
2022/01/01 02:33:10;;;;;;;80.10;37.28;;;9.80;99.90;;;;;;5074805;28;20040;-51
2022/01/01 02:35:35;;;;;;;95.70;41.22;;;9.80;99.90;;;;;;5074723;28;20035;-49
2022/01/01 02:38:01;;;;;;;91.32;41.45;;;9.80;99.90;;;;;;5074620;28;20424;-50
2022/01/01 02:40:27;;;;;;;86.43;39.25;;;9.80;99.90;;;;;;5074988;28;20043;-49
2022/01/01 02:42:54;;;;;;;101.25;46.38;;;9.80;99.90;;;;;;5074452;28;20098;-47
2022/01/01 02:45:20;;;;;;;86.53;43.42;;;9.90;99.90;;;;;;5074281;28;20076;-48
2022/01/01 02:47:46;;;;;;;89.63;43.20;;;9.80;99.90;;;;;;5074630;28;20036;-47
2022/01/01 02:50:12;;;;;;;95.07;43.85;;;9.90;99.90;;;;;;5066635;28;20040;-48
2022/01/01 02:52:39;;;;;;;106.55;46.90;;;9.90;99.90;;;;;;5054418;28;20041;-51
2022/01/01 02:55:06;;;;;;;93.20;42.58;;;9.90;99.90;;;;;;5064736;28;20408;-49
2022/01/01 02:57:32;;;;;;;94.95;40.25;;;9.80;99.90;;;;;;5074208;28;20120;-50
2022/01/01 02:59:57;;;;;;;82.93;39.85;;;9.80;99.90;;;;;;5074476;28;20362;-48
2022/01/01 03:02:23;;;;;;;81.65;36.25;;;9.90;99.90;;;;;;5074081;28;20100;-48
2022/01/01 03:04:49;;;;;;;80.93;36.50;;;9.90;99.90;;;;;;5073846;28;20059;-48
2022/01/01 03:07:15;;;;;;;80.07;34.97;;;9.90;99.90;;;;;;5074096;28;20132;-48
2022/01/01 03:09:41;;;;;;;76.72;33.42;;;9.90;99.90;;;;;;5074024;28;20107;-51
2022/01/01 03:12:09;;;;;;;80.28;32.25;;;9.80;99.90;;;;;;5073930;28;20043;-52
2022/01/01 03:14:36;;;;;;;82.78;31.73;;;9.90;99.90;;;;;;5072964;28;20078;-50
2022/01/01 03:17:06;;;;;;;71.38;30.95;;;9.90;99.90;;;;;;5074069;28;20048;-48
2022/01/01 03:19:33;;;;;;;84.15;30.88;;;9.80;99.90;;;;;;5072696;28;20126;-52
2022/01/01 03:22:00;;;;;;;75.20;30.20;;;9.90;99.90;;;;;;5073703;28;20048;-51
2022/01/01 03:24:26;;;;;;;67.90;29.35;;;9.80;99.90;;;;;;5073765;28;20059;-48
2022/01/01 03:26:52;;;;;;;79.97;30.75;;;9.90;99.90;;;;;;5073646;28;20381;-48
2022/01/01 03:29:17;;;;;;;76.30;31.42;;;9.90;99.90;;;;;;5073573;28;20048;-59
2022/01/01 03:31:43;;;;;;;77.75;31.05;;;10.00;99.90;;;;;;5073497;28;20386;-60
2022/01/01 03:34:09;;;;;;;85.15;34.17;;;9.90;99.90;;;;;;5073426;28;20036;-60
2022/01/01 03:36:34;;;;;;;71.68;31.88;;;9.90;99.90;;;;;;5073264;28;20056;-59
2022/01/01 03:39:00;;;;;;;74.75;33.58;;;9.90;99.90;;;;;;5072330;28;20040;-59
2022/01/01 03:41:26;;;;;;;79.35;33.00;;;10.00;99.90;;;;;;5072068;28;20504;-60
2022/01/01 03:43:52;;;;;;;86.93;32.40;;;9.90;99.90;;;;;;5073329;28;20040;-60
2022/01/01 03:46:18;;;;;;;77.05;32.92;;;10.00;99.90;;;;;;5073494;28;20043;-60
2022/01/01 03:48:44;;;;;;;76.95;31.45;;;9.90;99.90;;;;;;5073272;28;20115;-60
2022/01/01 03:51:10;;;;;;;81.55;31.27;;;9.90;99.90;;;;;;5057300;28;20045;-60
2022/01/01 03:53:35;;;;;;;81.55;30.67;;;9.90;99.90;;;;;;5053170;28;20029;-59
2022/01/01 03:56:01;;;;;;;76.50;30.50;;;9.90;99.90;;;;;;5071315;28;20040;-59
2022/01/01 03:58:27;;;;;;;76.57;30.40;;;9.90;99.90;;;;;;5073282;28;20544;-60
2022/01/01 04:00:53;;;;;;;70.05;27.58;;;9.90;99.90;;;;;;5073074;28;20072;-60
2022/01/01 04:03:18;;;;;;;73.22;27.92;;;9.90;99.90;;;;;;5072965;28;20400;-60
2022/01/01 04:05:45;;;;;;;74.07;27.80;;;9.90;99.90;;;;;;5072837;28;20500;-60
2022/01/01 04:08:12;;;;;;;61.78;26.13;;;9.80;99.90;;;;;;5072898;28;20037;-60
2022/01/01 04:10:39;;;;;;;78.50;26.10;;;9.90;99.90;;;;;;5072763;28;20044;-60
2022/01/01 04:13:06;;;;;;;72.35;24.92;;;9.90;99.90;;;;;;5072773;28;20041;-60
2022/01/01 04:15:35;;;;;;;72.03;28.65;;;9.90;99.90;;;;;;5072864;28;20401;-59
2022/01/01 04:18:04;;;;;;;67.97;27.50;;;9.90;99.90;;;;;;5072747;28;20040;-60
2022/01/01 04:20:30;;;;;;;65.80;28.20;;;9.80;99.90;;;;;;5072663;28;20040;-47
2022/01/01 04:22:57;;;;;;;67.88;26.60;;;9.80;99.90;;;;;;5072439;28;20040;-47
2022/01/01 04:25:25;;;;;;;67.72;25.55;;;9.90;99.90;;;;;;5072589;28;20174;-48
2022/01/01 04:27:53;;;;;;;64.38;26.63;;;9.80;99.90;;;;;;5072704;28;20044;-48
2022/01/01 04:30:19;;;;;;;69.72;26.95;;;9.90;99.90;;;;;;5072346;28;20047;-48
2022/01/01 04:32:45;;;;;;;72.07;30.50;;;9.90;99.90;;;;;;5072539;28;20040;-47
2022/01/01 04:35:12;;;;;;;74.30;31.15;;;9.90;99.90;;;;;;5071034;28;20040;-48
2022/01/01 04:37:38;;;;;;;72.75;29.73;;;9.90;99.90;;;;;;5072370;28;20052;-50
2022/01/01 04:40:05;;;;;;;74.15;33.10;;;9.80;99.90;;;;;;5071107;28;20131;-48
2022/01/01 04:42:31;;;;;;;71.40;30.85;;;9.90;99.90;;;;;;5072458;28;20047;-49
2022/01/01 04:44:58;;;;;;;71.85;29.92;;;9.90;99.90;;;;;;5072248;28;20041;-50
2022/01/01 04:47:24;;;;;;;70.18;31.02;;;9.90;99.90;;;;;;5072441;28;20042;-50
2022/01/01 04:49:51;;;;;;;85.25;33.05;;;9.90;99.90;;;;;;5066714;28;20453;-50
2022/01/01 04:52:16;;;;;;;80.38;33.42;;;9.80;99.90;;;;;;5052089;28;20468;-48
2022/01/01 04:54:44;;;;;;;75.88;32.83;;;9.80;99.90;;;;;;5059928;28;20037;-51
2022/01/01 04:57:10;;;;;;;78.30;33.90;;;9.90;99.90;;;;;;5072033;28;20599;-48
2022/01/01 04:59:36;;;;;;;75.65;34.25;;;9.90;99.90;;;;;;5072140;28;20044;-52
2022/01/01 05:02:03;;;;;;;68.18;31.67;;;9.80;99.90;;;;;;5072031;28;20094;-50
2022/01/01 05:04:29;;;;;;;75.15;33.55;;;9.90;99.90;;;;;;5071899;28;20060;-47
2022/01/01 05:06:54;;;;;;;72.65;32.83;;;9.90;99.90;;;;;;5072021;28;20049;-48
2022/01/01 05:09:20;;;;;;;72.47;33.20;;;9.90;99.90;;;;;;5071884;28;20037;-47
2022/01/01 05:11:47;;;;;;;78.10;36.60;;;10.00;99.90;;;;;;5072155;28;20040;-47
2022/01/01 05:14:13;;;;;;;76.53;36.17;;;10.00;99.90;;;;;;5070748;28;20055;-49
2022/01/01 05:16:39;;;;;;;84.07;38.35;;;10.00;99.90;;;;;;5071893;28;20111;-47
2022/01/01 05:19:05;;;;;;;80.68;39.42;;;10.10;99.90;;;;;;5070617;28;20082;-47
2022/01/01 05:21:33;;;;;;;90.47;43.42;;;10.10;99.90;;;;;;5071813;28;20037;-47
2022/01/01 05:23:59;;;;;;;94.80;44.65;;;10.00;99.90;;;;;;5072006;28;20064;-47
2022/01/01 05:26:25;;;;;;;89.95;45.35;;;10.00;99.90;;;;;;5072025;28;20106;-49
2022/01/01 05:28:51;;;;;;;89.90;45.05;;;10.00;99.90;;;;;;5071680;28;20500;-53
2022/01/01 05:31:19;;;;;;;93.80;47.63;;;10.00;99.90;;;;;;5071951;28;20043;-51
2022/01/01 05:33:49;;;;;;;98.65;44.70;;;10.10;99.90;;;;;;5071719;28;20044;-47
2022/01/01 05:36:15;;;;;;;93.57;43.33;;;10.10;99.90;;;;;;5070748;28;20098;-48
2022/01/01 05:38:42;;;;;;;88.78;43.63;;;10.00;99.90;;;;;;5071682;28;20540;-47
2022/01/01 05:41:08;;;;;;;95.00;41.83;;;10.00;99.90;;;;;;5071787;28;20033;-49
2022/01/01 05:43:34;;;;;;;83.00;38.22;;;10.00;99.90;;;;;;5071590;28;20126;-49
2022/01/01 05:46:00;;;;;;;85.90;36.28;;;9.90;99.90;;;;;;5071628;28;20381;-48
2022/01/01 05:48:25;;;;;;;74.95;35.50;;;9.90;99.90;;;;;;5071426;28;20075;-47
2022/01/01 05:50:51;;;;;;;82.50;34.25;;;9.90;99.90;;;;;;5056866;28;20076;-48
2022/01/01 05:53:18;;;;;;;86.72;33.13;;;9.80;99.90;;;;;;5051597;28;20037;-48
2022/01/01 05:55:44;;;;;;;80.50;31.63;;;9.80;99.90;;;;;;5066874;28;20040;-47
2022/01/01 05:58:10;;;;;;;74.85;30.13;;;9.80;99.90;;;;;;5071624;28;20452;-48
2022/01/01 06:00:35;;;;;;;103.05;33.70;;;9.80;99.90;;;;;;5071984;28;20102;-48
2022/01/01 06:03:01;;;;;;;75.43;29.42;;;9.80;99.90;;;;;;5075190;28;20055;-51
2022/01/01 06:05:28;;;;;;;81.05;30.70;;;9.90;99.90;;;;;;5075083;28;20495;-48
2022/01/01 06:07:55;;;;;;;96.93;32.97;;;9.90;99.90;;;;;;5075052;28;20041;-47
2022/01/01 06:10:21;;;;;;;96.30;32.92;;;9.90;99.90;;;;;;5073742;28;20033;-49
2022/01/01 06:12:47;;;;;;;79.85;30.73;;;10.00;99.90;;;;;;5075035;28;20036;-51
2022/01/01 06:15:13;;;;;;;88.55;30.70;;;10.00;99.90;;;;;;5075044;28;20097;-51
2022/01/01 06:17:38;;;;;;;97.60;33.75;;;10.00;99.90;;;;;;5074020;28;20052;-47
2022/01/01 06:20:05;;;;;;;114.22;35.88;;;10.00;99.90;;;;;;5075101;28;20039;-49
2022/01/01 06:22:30;;;;;;;89.32;33.78;;;10.00;99.90;;;;;;5073410;28;20040;-60
2022/01/01 06:24:56;;;;;;;92.55;34.28;;;10.00;99.90;;;;;;5075031;28;20032;-60
2022/01/01 06:27:22;;;;;;;99.55;34.67;;;10.10;99.90;;;;;;5073505;28;20314;-60
2022/01/01 06:29:48;;;;;;;96.50;33.50;;;10.00;99.90;;;;;;5074856;28;20118;-60
2022/01/01 06:32:14;;;;;;;104.63;32.92;;;10.00;99.90;;;;;;5074621;28;20496;-60
2022/01/01 06:34:39;;;;;;;92.30;31.27;;;10.10;99.90;;;;;;5074940;28;20052;-60
2022/01/01 06:37:05;;;;;;;92.50;30.15;;;10.10;99.90;;;;;;5074629;28;20063;-60
2022/01/01 06:39:31;;;;;;;89.70;30.05;;;10.10;99.90;;;;;;5074674;28;20037;-60
2022/01/01 06:41:57;;;;;;;87.40;28.63;;;10.20;99.90;;;;;;5074666;28;20526;-60
2022/01/01 06:44:22;;;;;;;77.10;27.27;;;10.10;99.90;;;;;;5074419;28;20051;-60
2022/01/01 06:46:48;;;;;;;78.47;27.30;;;10.10;99.90;;;;;;5074352;28;20116;-60
2022/01/01 06:49:15;;;;;;;66.88;25.13;;;10.20;99.90;;;;;;5074353;28;20090;-60
2022/01/01 06:51:40;;;;;;;76.00;25.92;;;10.10;99.90;;;;;;5054604;28;20044;-48
2022/01/01 06:54:06;;;;;;;73.15;24.98;;;10.20;99.90;;;;;;5057394;28;20040;-47
2022/01/01 06:56:32;;;;;;;65.45;25.60;;;10.20;99.90;;;;;;5074352;28;20076;-47
2022/01/01 06:58:58;;;;;;;66.70;23.83;;;10.20;99.90;;;;;;5074194;28;20102;-47
2022/01/01 07:01:23;;;;;;;71.63;23.90;;;10.20;99.90;;;;;;5074180;28;20036;-48
2022/01/01 07:03:49;;;;;;;67.22;23.92;;;10.20;99.90;;;;;;5074129;28;20056;-48
2022/01/01 07:06:15;;;;;;;64.75;23.42;;;10.20;99.90;;;;;;5074198;28;20044;-47
2022/01/01 07:08:40;;;;;;;66.22;22.83;;;10.30;99.90;;;;;;5072784;28;20110;-48
2022/01/01 07:11:06;;;;;;;61.80;21.88;;;10.30;99.90;;;;;;5073734;28;20485;-50
2022/01/01 07:13:32;;;;;;;62.50;21.88;;;10.30;99.90;;;;;;5073741;28;20047;-48
2022/01/01 07:15:58;;;;;;;61.85;22.95;;;10.30;99.90;;;;;;5073788;28;20041;-48
2022/01/01 07:18:24;;;;;;;68.60;24.38;;;10.30;99.90;;;;;;5074218;28;20078;-61
2022/01/01 07:20:50;;;;;;;71.28;24.52;;;10.30;99.90;;;;;;5073924;28;20068;-60
2022/01/01 07:23:15;;;;;;;88.63;27.92;;;10.30;99.90;;;;;;5073551;28;20041;-61
2022/01/01 07:25:41;;;;;;;78.25;26.80;;;10.20;99.90;;;;;;5073768;28;20090;-61
2022/01/01 07:28:07;;;;;;;81.82;27.77;;;10.10;99.90;;;;;;5073710;28;20032;-47
2022/01/01 07:30:33;;;;;;;75.80;26.67;;;10.20;99.90;;;;;;5073504;28;20055;-48
2022/01/01 07:32:59;;;;;;;64.32;24.60;;;10.30;99.90;;;;;;5071929;28;20040;-51
2022/01/01 07:35:25;;;;;;;71.50;25.98;;;10.30;99.90;;;;;;5071979;28;20121;-52
2022/01/01 07:37:52;;;;;;;74.82;25.33;;;10.40;99.90;;;;;;5072069;28;20067;-49
2022/01/01 07:40:19;;;;;;;70.43;24.58;;;10.40;99.90;;;;;;5070661;28;20046;-52
2022/01/01 07:42:46;;;;;;;68.10;25.02;;;10.20;99.90;;;;;;5071779;28;20125;-52
2022/01/01 07:45:12;;;;;;;71.55;25.95;;;10.30;99.90;;;;;;5071598;28;20036;-50
2022/01/01 07:47:39;;;;;;;65.80;24.80;;;10.40;99.90;;;;;;5071983;28;20062;-50
2022/01/01 07:50:07;;;;;;;64.60;23.67;;;10.30;99.90;;;;;;5064784;28;20555;-47
2022/01/01 07:52:32;;;;;;;67.90;24.70;;;10.40;99.90;;;;;;5051684;28;20037;-48
2022/01/01 07:54:58;;;;;;;66.53;24.58;;;10.30;99.90;;;;;;5060417;28;20047;-51
2022/01/01 07:57:24;;;;;;;69.68;26.42;;;10.40;99.90;;;;;;5070896;28;20044;-49
2022/01/01 07:59:50;;;;;;;73.50;25.05;;;10.50;99.90;;;;;;5061212;28;20047;-48
2022/01/01 08:02:15;;;;;;;73.18;27.23;;;10.40;99.90;;;;;;5059761;28;20040;-50
2022/01/01 08:04:41;;;;;;;81.60;27.63;;;10.40;99.90;;;;;;5051232;28;20133;-61
2022/01/01 08:07:07;;;;;;;63.55;25.90;;;10.50;99.90;;;;;;5051676;28;20044;-61
2022/01/01 08:09:33;;;;;;;74.43;27.75;;;10.60;99.90;;;;;;5051396;28;20073;-61
2022/01/01 08:11:58;;;;;;;66.22;26.67;;;10.50;99.90;;;;;;5051311;28;20416;-60
2022/01/01 08:14:24;;;;;;;66.45;27.80;;;10.60;99.90;;;;;;5051234;28;20572;-61
2022/01/01 08:17:04;;;;;;;155.60;84.90;;;10.60;99.90;;;;;;5051294;28;20469;-49
2022/01/01 08:19:30;;;;;;;73.68;29.98;;;10.70;99.90;;;;;;5051484;28;20041;-52
2022/01/01 08:21:57;;;;;;;70.57;26.85;;;10.60;99.90;;;;;;5051466;28;20060;-50
2022/01/01 08:24:24;;;;;;;70.72;28.50;;;10.70;99.90;;;;;;5050311;28;20040;-48
2022/01/01 08:26:50;;;;;;;66.78;29.17;;;10.70;99.90;;;;;;5049811;28;20496;-47
2022/01/01 08:29:16;;;;;;;64.75;26.30;;;10.80;99.90;;;;;;5049654;28;20033;-51
2022/01/01 08:31:42;;;;;;;64.57;28.30;;;10.70;99.90;;;;;;5050763;28;20118;-50
2022/01/01 08:34:08;;;;;;;79.45;28.60;;;10.80;99.90;;;;;;5014550;28;20508;-50
2022/01/01 08:36:34;;;;;;;77.72;30.67;;;10.80;99.90;;;;;;5069664;28;20048;-49
2022/01/01 08:39:00;;;;;;;66.68;30.33;;;10.80;99.90;;;;;;5070849;28;20085;-49
2022/01/01 08:41:26;;;;;;;67.00;30.70;;;10.90;99.90;;;;;;5070494;28;20032;-48
2022/01/01 08:43:52;;;;;;;77.07;30.52;;;10.90;99.90;;;;;;5070422;28;20121;-61
2022/01/01 08:46:18;;;;;;;70.38;29.80;;;10.90;99.90;;;;;;5069291;28;20077;-61
2022/01/01 08:48:44;;;;;;;65.53;29.77;;;10.90;99.90;;;;;;5069539;28;20032;-50
2022/01/01 08:51:17;;;;;;;68.28;31.13;;;11.10;99.90;;;;;;5054585;28;20045;-49
2022/01/01 08:53:43;;;;;;;67.43;29.25;;;11.00;99.90;;;;;;5050396;28;20052;-49
2022/01/01 08:56:10;;;;;;;69.78;29.60;;;11.00;99.90;;;;;;5050656;28;20115;-47
2022/01/01 08:58:35;;;;;;;68.03;29.05;;;11.10;99.90;;;;;;5049939;28;20124;-48
2022/01/01 09:01:03;;;;;;;58.05;28.92;;;11.10;99.90;;;;;;5050558;28;20179;-47
2022/01/01 09:03:29;;;;;;;64.32;29.10;;;11.10;99.90;;;;;;5050413;28;20037;-51
2022/01/01 09:05:54;;;;;;;70.60;29.88;;;11.20;99.90;;;;;;5050324;28;20064;-51
2022/01/01 09:08:20;;;;;;;56.10;28.63;;;11.30;99.90;;;;;;5050362;28;20037;-51
2022/01/01 09:10:46;;;;;;;57.03;27.00;;;11.30;99.90;;;;;;5050335;28;20084;-49
2022/01/01 09:13:12;;;;;;;53.83;25.83;;;11.30;99.90;;;;;;5050625;28;20072;-51
2022/01/01 09:15:37;;;;;;;45.08;24.65;;;11.40;99.90;;;;;;5050220;28;20547;-52
2022/01/01 09:18:03;;;;;;;54.67;25.80;;;11.40;99.90;;;;;;5050250;28;20124;-52
2022/01/01 09:20:29;;;;;;;51.58;25.65;;;11.50;99.90;;;;;;5052811;28;20067;-61
2022/01/01 09:22:55;;;;;;;49.55;26.67;;;11.50;99.90;;;;;;5060007;28;20029;-60
2022/01/01 09:25:20;;;;;;;51.70;25.38;;;11.50;99.90;;;;;;5058840;28;20095;-61
2022/01/01 09:27:47;;;;;;;48.08;24.67;;;11.60;99.90;;;;;;5060336;28;20051;-60
2022/01/01 09:30:12;;;;;;;46.05;22.85;;;11.60;99.90;;;;;;5062879;28;20435;-61
2022/01/01 09:32:38;;;;;;;49.85;24.83;;;11.60;99.90;;;;;;5068044;28;20029;-61
2022/01/01 09:35:05;;;;;;;43.13;23.23;;;11.70;99.90;;;;;;5071201;28;20130;-61
2022/01/01 09:37:32;;;;;;;45.50;24.42;;;11.60;99.90;;;;;;5074743;28;20109;-61
2022/01/01 09:39:58;;;;;;;42.75;23.77;;;11.70;99.90;;;;;;5072917;28;20048;-48
2022/01/01 09:42:25;;;;;;;45.97;23.63;;;11.70;99.90;;;;;;5073909;28;20455;-48
2022/01/01 09:44:54;;;;;;;41.53;21.88;;;11.70;99.90;;;;;;5074209;28;20044;-61
2022/01/01 09:47:19;;;;;;;45.70;23.98;;;11.70;99.90;;;;;;5074165;28;20043;-51
2022/01/01 09:49:45;;;;;;;43.15;23.55;;;11.80;99.90;;;;;;5068419;28;20037;-52
2022/01/01 09:52:13;;;;;;;39.60;21.02;;;11.70;99.90;;;;;;5052858;28;20487;-61
2022/01/01 09:54:39;;;;;;;42.25;22.73;;;11.70;99.90;;;;;;5054093;28;20104;-49
2022/01/01 09:57:05;;;;;;;40.65;23.05;;;11.90;99.90;;;;;;5052998;28;20033;-61
2022/01/01 09:59:32;;;;;;;38.15;21.92;;;11.80;99.90;;;;;;5053486;28;20075;-61
2022/01/01 10:01:57;;;;;;;42.20;22.25;;;11.80;99.90;;;;;;5053609;28;20121;-46
2022/01/01 10:04:23;;;;;;;44.22;22.73;;;11.80;99.90;;;;;;5053337;28;20132;-48
2022/01/01 10:07:03;;;;;;;40.85;21.20;;;11.70;99.90;;;;;;5053258;28;20616;-47
2022/01/01 10:09:34;;;;;;;38.97;20.45;;;11.80;99.90;;;;;;5053394;28;20493;-48
2022/01/01 10:12:01;;;;;;;38.42;19.10;;;11.80;99.90;;;;;;5053708;28;20041;-48
2022/01/01 10:14:53;;;;;;;32.53;17.90;;;11.70;99.90;;;;;;5053604;28;20037;-48
2022/01/01 10:17:21;;;;;;;40.28;20.40;;;11.70;99.90;;;;;;5050469;28;20507;-47
2022/01/01 10:19:49;;;;;;;36.08;18.73;;;11.70;99.90;;;;;;5053641;28;20033;-50
2022/01/01 10:22:20;;;;;;;43.65;19.92;;;11.80;99.90;;;;;;5053121;28;20053;-48
2022/01/01 10:27:43;;;;;;;37.50;18.27;;;11.80;99.90;;;;;;5053259;28;20051;-61
2022/01/01 10:30:36;;;;;;;34.28;16.98;;;11.80;99.90;;;;;;5060742;28;20052;-61
2022/01/01 10:33:12;;;;;;;26.85;15.95;;;11.80;99.90;;;;;;5066915;28;20063;-52
2022/01/01 10:35:43;;;;;;;31.65;15.60;;;11.80;99.90;;;;;;5073067;28;20049;-49
2022/01/01 10:38:10;;;;;;;30.85;15.52;;;11.80;99.90;;;;;;5073112;28;20036;-51
2022/01/01 10:40:36;;;;;;;28.63;15.02;;;11.80;99.90;;;;;;5073146;28;20346;-48
2022/01/01 10:43:02;;;;;;;26.92;14.82;;;11.80;99.90;;;;;;5073155;28;20045;-61
2022/01/01 10:45:42;;;;;;;32.65;15.50;;;11.80;99.90;;;;;;5072967;28;20119;-61
2022/01/01 10:48:17;;;;;;;38.05;15.38;;;11.80;99.90;;;;;;5050921;28;20052;-61
2022/01/01 10:50:44;;;;;;;29.98;15.40;;;11.90;99.90;;;;;;5065009;28;20102;-61
2022/01/01 10:53:16;;;;;;;29.13;15.25;;;11.90;99.90;;;;;;5071789;28;20048;-61
2022/01/01 10:55:46;;;;;;;30.40;14.93;;;11.80;99.90;;;;;;5072878;28;20119;-61
2022/01/01 10:58:23;;;;;;;30.35;15.73;;;11.80;99.90;;;;;;5072836;28;20044;-61
2022/01/01 11:00:50;;;;;;;28.00;14.45;;;11.90;99.90;;;;;;5072568;28;20469;-61
2022/01/01 11:03:18;;;;;;;29.63;13.95;;;11.80;99.90;;;;;;5072814;28;20040;-61
2022/01/01 11:05:45;;;;;;;26.30;13.82;;;11.90;99.90;;;;;;5072387;28;20045;-61
2022/01/01 11:08:12;;;;;;;26.33;13.45;;;12.00;99.90;;;;;;5072417;28;20163;-61
2022/01/01 11:10:39;;;;;;;27.50;13.68;;;11.90;99.90;;;;;;5072514;28;20051;-61
2022/01/01 11:13:06;;;;;;;32.70;14.10;;;11.90;99.90;;;;;;5071447;28;20093;-61
2022/01/01 11:15:32;;;;;;;30.65;13.27;;;12.00;99.90;;;;;;5072389;28;20137;-61
2022/01/01 11:17:59;;;;;;;26.70;13.75;;;12.00;99.90;;;;;;5071395;28;20041;-60
2022/01/01 11:20:33;;;;;;;26.10;13.43;;;12.00;99.90;;;;;;5072426;28;20374;-61
2022/01/01 11:23:05;;;;;;;28.52;13.18;;;12.00;99.90;;;;;;5072265;28;20048;-61
2022/01/01 11:25:32;;;;;;;29.93;12.53;;;12.10;99.90;;;;;;5072204;28;20056;-59
2022/01/01 11:27:58;;;;;;;23.05;11.98;;;12.00;99.90;;;;;;5070716;28;20283;-60
2022/01/01 11:30:29;;;;;;;26.27;11.57;;;12.00;99.90;;;;;;5072384;28;20036;-61
2022/01/01 11:33:06;;;;;;;24.92;12.05;;;12.10;99.90;;;;;;5072379;28;20044;-60
2022/01/01 11:35:35;;;;;;;23.83;11.23;;;12.10;99.90;;;;;;5072029;28;20041;-61
2022/01/01 11:38:04;;;;;;;24.33;11.93;;;12.10;99.90;;;;;;5071976;28;20542;-61
2022/01/01 11:40:41;;;;;;;23.88;13.05;;;12.10;99.90;;;;;;5071890;28;20044;-51
2022/01/01 11:43:43;;;;;;;21.23;11.20;;;12.20;99.90;;;;;;5071752;28;20084;-51
2022/01/01 11:46:16;;;;;;;22.38;10.07;;;12.20;99.90;;;;;;5071898;28;20068;-51
2022/01/01 11:49:00;;;;;;;26.77;11.40;;;12.20;99.90;;;;;;5071758;28;20041;-48
2022/01/01 11:51:38;;;;;;;24.08;10.23;;;12.30;99.90;;;;;;5053577;28;20040;-61
2022/01/01 11:54:17;;;;;;;21.50;10.55;;;12.30;99.90;;;;;;5051712;28;20052;-61
2022/01/01 11:56:49;;;;;;;23.75;10.32;;;12.10;99.90;;;;;;5050314;28;20045;-61
2022/01/01 11:59:36;;;;;;;25.95;11.38;;;12.20;99.90;;;;;;5051517;28;20124;-60
2022/01/01 12:02:25;;;;;;;18.52;8.65;;;12.20;99.90;;;;;;5051350;28;20053;-61
2022/01/01 12:04:55;;;;;;;19.55;10.05;;;12.10;99.90;;;;;;5045706;28;20059;-61
2022/01/01 12:07:22;;;;;;;21.20;9.68;;;12.20;99.90;;;;;;5051381;28;20037;-61
2022/01/01 12:10:06;;;;;;;21.75;11.32;;;12.20;99.90;;;;;;5051307;28;20036;-60
2022/01/01 12:13:00;;;;;;;25.60;9.38;;;12.20;99.90;;;;;;5051372;28;20072;-60
2022/01/01 12:15:36;;;;;;;20.10;9.80;;;12.20;99.90;;;;;;5051390;28;20053;-48
2022/01/01 12:18:09;;;;;;;19.92;9.73;;;12.20;99.90;;;;;;5051118;28;20068;-47
2022/01/01 12:20:41;;;;;;;19.55;10.73;;;12.20;99.90;;;;;;5051501;28;20124;-61
2022/01/01 12:23:11;;;;;;;18.02;8.98;;;12.20;99.90;;;;;;5051222;28;20155;-61
2022/01/01 12:25:38;;;;;;;19.60;9.07;;;12.20;99.90;;;;;;5050003;28;20260;-61
2022/01/01 12:28:07;;;;;;;14.70;8.57;;;12.20;99.90;;;;;;5051036;28;20037;-60
2022/01/01 12:30:39;;;;;;;21.50;9.10;;;12.20;99.90;;;;;;5050903;28;20044;-61
2022/01/01 12:33:06;;;;;;;16.38;7.50;;;12.20;99.90;;;;;;5050916;28;20126;-61
2022/01/01 12:35:44;;;;;;;15.30;7.78;;;12.20;99.90;;;;;;5066944;28;20141;-59
2022/01/01 12:38:16;;;;;;;16.77;8.25;;;12.20;99.90;;;;;;5070892;28;20048;-60
2022/01/01 12:41:15;;;;;;;18.23;8.30;;;12.20;99.90;;;;;;5070848;28;20507;-61